Juneau, WI (53039)

2:23 PM CST on December 04, 2016 (GMT -0600)
Georgetown Heights | | Change Station
Active Advisory: Winter Weather Advisory

Elev 902 ft 43.46 °N, 88.81 °W | Updated 3 seconds ago

Light Snow
Light Snow
32.4 °F
Feels Like 32 °F
N
0.0
Wind Variable Wind from NNE

Today
High -- | Low -- °F
--% Chance of Precip.
Yesterday
High -- | Low -- °F
Precip. -- in
Pressure 29.93 in
Visibility 0.5 miles
Clouds Overcast 400 ft
Windchill 32 °F
Dew Point 29 °F
Humidity 88%
Rainfall 0.00 in
Snow Depth Not available.
7:11 AM 4:19 PM
Waxing Crescent, 25% visible
METAR KUNU 042015Z AUTO 19003KT 1/2SM -SN OVC004 M01/M01 A2993 RMK AO2 P0001 T10101015
Pressure 29.93 in
Visibility 0.5 miles
Clouds Overcast 400 ft
Windchill 32 °F
Dew Point 29 °F
Humidity 88%
Rainfall 0.00 in
Snow Depth Not available.
7:11 AM 4:19 PM
Waxing Crescent, 25% visible
METAR KUNU 042015Z AUTO 19003KT 1/2SM -SN OVC004 M01/M01 A2993 RMK AO2 P0001 T10101015

10-Day Weather Forecast

Almanac

Astronomy

Dec. 04, 2016 Rise Set
Actual Time
Civil Twilight
Nautical Twilight
Astronomical Twilight
Moon
Length of Visible Light
Length of Day
Tomorrow will be .
, % of the Moon is Illuminated

Today's Extremes

State Highs State Lows

Community

WunderPhotos

Upload Photos

1,955,661 photos uploaded!

WunderBlog® & News

Nearby

Air Quality

  Air Quality AQ Index Pollutant
Not available.

Snow Depth

Station Depth Elevation

Earthquake Activity

City Distance Mag. Time & Date
Minimum magnitude displayed is 2.5.

Coastal Water Temperatures

Place Temperature

Stations

Nearby Weather Stations

Station Location Temp. Windchill Dew Point Humidity Wind Precip. Elev Updated Type
                   

Watches & Warnings

Winter Weather Advisory
Issued: 12:00 PM CST Dec. 4, 2016 – National Weather Service

... Winter Weather Advisory remains in effect until 6 PM CST this
evening...

A Winter Weather Advisory remains in effect until 6 PM CST this
evening.

* Timing... tapering off during the late afternoon or early
evening.

* Snow accumulations... additional amounts of 1 to 3 inches for a
total of 3 to 5 inches. Far southern WI will have the highest
amounts.

* Winds... south to southeast at 10 to 15 mph.

* Impacts... reduced visibility and slippery spots on untreated
roads creating hazardous travel.

Precautionary/preparedness actions...

A Winter Weather Advisory for snow means that periods of snow
will cause primarily travel difficulties. Be prepared for snow
covered roads and limited visibilities... and use caution while
driving.